< Typhoon 197021 1970 Season Typhoon 197023 >
Typhoon 197022 (MARGE)
General InformationTrack Information on Google Maps || Disaster Info.ResourceGoogle EarthGE AnimationAtom FeedGeoJSON
Detalied Best Track (Time Zone = UTC)
Year Month Day Hour Lat. Long. Pressure (hPa) Wind (kt) Class Image Chart
1970 10 27 00 12.0 149.9 1008 0 2 -- Chart
1970 10 27 06 12.0 148.3 1006 0 2 -- Chart
1970 10 27 12 12.1 146.6 1006 0 2 -- Chart
1970 10 27 18 12.0 145.0 1004 0 2 -- Chart
1970 10 28 00 12.0 143.4 1000 0 2 -- Chart
1970 10 28 06 12.3 141.9 995 0 2 -- Chart
1970 10 28 12 12.4 140.3 995 0 2 -- Chart
1970 10 28 18 12.6 138.9 1000 0 2 -- Chart
1970 10 29 00 12.7 137.0 1000 0 2 -- Chart
1970 10 29 06 13.6 135.7 1002 0 2 -- Chart
1970 10 29 12 13.7 134.6 1004 0 2 -- Chart
1970 10 29 18 14.0 133.5 1004 0 2 -- Chart
1970 10 30 00 14.3 132.5 1004 0 2 -- Chart
1970 10 30 06 14.5 131.4 1002 0 9 -- Chart
1970 10 30 12 14.6 130.1 1000 0 9 -- Chart
1970 10 30 18 14.8 129.2 1000 0 9 -- Chart
1970 10 31 00 15.1 128.0 1000 0 9 -- Chart
1970 10 31 06 15.5 126.9 998 0 9 -- Chart
1970 10 31 12 14.8 125.5 996 0 9 -- Chart
1970 10 31 18 14.3 124.0 998 0 9 -- Chart
1970 11 1 00 13.8 122.9 1000 0 9 -- Chart
1970 11 1 06 13.8 121.9 1000 0 2 -- Chart
1970 11 1 12 14.0 121.0 1000 0 2 -- Chart
1970 11 1 18 14.0 120.0 1000 0 2 -- Chart
1970 11 2 00 14.0 119.0 1000 0 2 -- Chart
1970 11 2 06 14.1 118.2 995 0 9 -- Chart
1970 11 2 12 14.3 117.6 990 0 9 -- Chart
1970 11 2 18 14.6 117.2 990 0 9 -- Chart
1970 11 3 00 14.7 117.0 990 0 9 -- Chart
1970 11 3 06 14.7 116.6 995 0 9 -- Chart
1970 11 3 12 14.6 116.5 995 0 9 -- Chart
1970 11 3 18 14.3 116.4 995 0 9 -- Chart
1970 11 4 00 14.3 116.5 990 0 9 -- Chart
1970 11 4 06 14.9 116.3 990 0 9 -- Chart
1970 11 4 12 15.4 115.6 990 0 9 -- Chart
1970 11 4 18 15.7 114.9 990 0 9 -- Chart
1970 11 5 00 15.8 114.5 990 0 9 -- Chart
1970 11 5 06 15.5 114.4 995 0 9 -- Chart
1970 11 5 12 15.7 114.4 1000 0 9 -- Chart
1970 11 5 18 15.8 113.9 1000 0 9 -- Chart
1970 11 6 00 15.8 113.3 1000 0 9 -- Chart
1970 11 6 06 15.9 112.9 1000 0 9 -- Chart
1970 11 6 12 16.0 112.3 1002 0 2 -- Chart
1970 11 6 18 16.0 111.7 1004 0 2 -- Chart
1970 11 7 00 16.0 111.0 1008 0 2 -- Chart
1970 11 7 06 16.3 110.5 1010 0 2 -- Chart
1970 11 7 12 16.5 109.9 1010 0 2 -- Chart
1970 11 7 18 16.5 109.5 1010 0 2 -- Chart
1970 11 8 00 16.5 109.0 1014 0 2 -- Chart
Japan Meteorological Agency Best Track Data | Correction Date : 1989-06-01
< Typhoon 197021 1970 Season Typhoon 197023 >

Help